Aviation Digital Data Service (ADDS)

Output produced by METARs form (1129 UTC 25 June 2019)
found at http://www.aviationweather.gov/metar/data/
 
METAR text: MHTG 251100Z 00000KT 9999 BKN026 17/16 Q1019 A3009 NOSIG
Conditions at: MHTG (TEGUCIGALPA/TON , HN) observed 1100 UTC 25 June 2019
Temperature: 17.0°C (63°F)
Dewpoint: 16.0°C (61°F) [RH = 94%]
Pressure (altimeter): 30.09 inches Hg (1019.0 mb)
Winds: calm
Visibility: 6 or more miles (10+ km)
Ceiling: 2600 feet AGL
Clouds: broken clouds at 2600 feet AGL
Weather: no significant weather observed at this time

METAR text: MHTG 251000Z 24002KT 9999 BKN026 18/16 Q1018 A3006 NOSIG
Conditions at: MHTG (TEGUCIGALPA/TON , HN) observed 1000 UTC 25 June 2019
Temperature: 18.0°C (64°F)
Dewpoint: 16.0°C (61°F) [RH = 88%]
Pressure (altimeter): 30.06 inches Hg (1018.0 mb)
Winds: from the WSW (240 degrees) at 2 MPH (2 knots; 1.0 m/s)
Visibility: 6 or more miles (10+ km)
Ceiling: 2600 feet AGL
Clouds: broken clouds at 2600 feet AGL
Weather: no significant weather observed at this time

METAR text: MHTG 250900Z 26005KT 9999 FEW028 18/15 Q1018 A3006 NOSIG
Conditions at: MHTG (TEGUCIGALPA/TON , HN) observed 0900 UTC 25 June 2019
Temperature: 18.0°C (64°F)
Dewpoint: 15.0°C (59°F) [RH = 83%]
Pressure (altimeter): 30.06 inches Hg (1018.0 mb)
Winds: from the W (260 degrees) at 6 MPH (5 knots; 2.6 m/s)
Visibility: 6 or more miles (10+ km)
Ceiling: at least 12,000 feet AGL
Clouds: few clouds at 2800 feet AGL
Weather: no significant weather observed at this time

METAR text: MHTG 250800Z 24004KT 9999 SCT028 18/16 Q1019 A3009 NOSIG
Conditions at: MHTG (TEGUCIGALPA/TON , HN) observed 0800 UTC 25 June 2019
Temperature: 18.0°C (64°F)
Dewpoint: 16.0°C (61°F) [RH = 88%]
Pressure (altimeter): 30.09 inches Hg (1019.0 mb)
Winds: from the WSW (240 degrees) at 5 MPH (4 knots; 2.1 m/s)
Visibility: 6 or more miles (10+ km)
Ceiling: at least 12,000 feet AGL
Clouds: scattered clouds at 2800 feet AGL
Weather: no significant weather observed at this time

METAR text: MHTG 250700Z 20003KT 9999 FEW028 18/16 Q1019 A3009 NOSIG
Conditions at: MHTG (TEGUCIGALPA/TON , HN) observed 0700 UTC 25 June 2019
Temperature: 18.0°C (64°F)
Dewpoint: 16.0°C (61°F) [RH = 88%]
Pressure (altimeter): 30.09 inches Hg (1019.0 mb)
Winds: from the SSW (200 degrees) at 3 MPH (3 knots; 1.5 m/s)
Visibility: 6 or more miles (10+ km)
Ceiling: at least 12,000 feet AGL
Clouds: few clouds at 2800 feet AGL
Weather: no significant weather observed at this time

METAR text: MHTG 250600Z 00000KT 9999 FEW028 18/16 Q1020 A3012 NOSIG
Conditions at: MHTG (TEGUCIGALPA/TON , HN) observed 0600 UTC 25 June 2019
Temperature: 18.0°C (64°F)
Dewpoint: 16.0°C (61°F) [RH = 88%]
Pressure (altimeter): 30.12 inches Hg (1020.0 mb)
Winds: calm
Visibility: 6 or more miles (10+ km)
Ceiling: at least 12,000 feet AGL
Clouds: few clouds at 2800 feet AGL
Weather: no significant weather observed at this time

METAR text: MHTG 250500Z 23003KT 9999 FEW030 19/16 Q1021 A3015 NOSIG
Conditions at: MHTG (TEGUCIGALPA/TON , HN) observed 0500 UTC 25 June 2019
Temperature: 19.0°C (66°F)
Dewpoint: 16.0°C (61°F) [RH = 83%]
Pressure (altimeter): 30.15 inches Hg (1021.0 mb)
Winds: from the SW (230 degrees) at 3 MPH (3 knots; 1.5 m/s)
Visibility: 6 or more miles (10+ km)
Ceiling: at least 12,000 feet AGL
Clouds: few clouds at 3000 feet AGL
Weather: no significant weather observed at this time

METAR text: MHTG 250400Z 00000KT 9999 FEW030 21/16 Q1021 A3015 NOSIG
Conditions at: MHTG (TEGUCIGALPA/TON , HN) observed 0400 UTC 25 June 2019
Temperature: 21.0°C (70°F)
Dewpoint: 16.0°C (61°F) [RH = 73%]
Pressure (altimeter): 30.15 inches Hg (1021.0 mb)
Winds: calm
Visibility: 6 or more miles (10+ km)
Ceiling: at least 12,000 feet AGL
Clouds: few clouds at 3000 feet AGL
Weather: no significant weather observed at this time

METAR text: MHTG 250300Z 12003KT 9999 FEW030 22/16 Q1020 A3012 NOSIG
Conditions at: MHTG (TEGUCIGALPA/TON , HN) observed 0300 UTC 25 June 2019
Temperature: 22.0°C (72°F)
Dewpoint: 16.0°C (61°F) [RH = 69%]
Pressure (altimeter): 30.12 inches Hg (1020.0 mb)
Winds: from the ESE (120 degrees) at 3 MPH (3 knots; 1.5 m/s)
Visibility: 6 or more miles (10+ km)
Ceiling: at least 12,000 feet AGL
Clouds: few clouds at 3000 feet AGL
Weather: no significant weather observed at this time

METAR text: MHTG 250200Z 00000KT 9999 FEW030 23/15 Q1019 A3009 NOSIG
Conditions at: MHTG (TEGUCIGALPA/TON , HN) observed 0200 UTC 25 June 2019
Temperature: 23.0°C (73°F)
Dewpoint: 15.0°C (59°F) [RH = 61%]
Pressure (altimeter): 30.09 inches Hg (1019.0 mb)
Winds: calm
Visibility: 6 or more miles (10+ km)
Ceiling: at least 12,000 feet AGL
Clouds: few clouds at 3000 feet AGL
Weather: no significant weather observed at this time

METAR text: MHTG 250100Z 00000KT 9999 FEW032 23/15 Q1018 A3006 NOSIG
Conditions at: MHTG (TEGUCIGALPA/TON , HN) observed 0100 UTC 25 June 2019
Temperature: 23.0°C (73°F)
Dewpoint: 15.0°C (59°F) [RH = 61%]
Pressure (altimeter): 30.06 inches Hg (1018.0 mb)
Winds: calm
Visibility: 6 or more miles (10+ km)
Ceiling: at least 12,000 feet AGL
Clouds: few clouds at 3200 feet AGL
Weather: no significant weather observed at this time

METAR text: MHTG 250000Z 08006KT 9999 FEW034 25/14 Q1018 A3006 NOSIG
Conditions at: MHTG (TEGUCIGALPA/TON , HN) observed 0000 UTC 25 June 2019
Temperature: 25.0°C (77°F)
Dewpoint: 14.0°C (57°F) [RH = 50%]
Pressure (altimeter): 30.06 inches Hg (1018.0 mb)
Winds: from the E (80 degrees) at 7 MPH (6 knots; 3.1 m/s)
Visibility: 6 or more miles (10+ km)
Ceiling: at least 12,000 feet AGL
Clouds: few clouds at 3400 feet AGL
Weather: no significant weather observed at this time

METAR text: MHTG 242300Z 10010KT 9999 FEW032 27/14 Q1018 A3006 NOSIG
Conditions at: MHTG (TEGUCIGALPA/TON , HN) observed 2300 UTC 24 June 2019
Temperature: 27.0°C (81°F)
Dewpoint: 14.0°C (57°F) [RH = 45%]
Pressure (altimeter): 30.06 inches Hg (1018.0 mb)
Winds: from the E (100 degrees) at 12 MPH (10 knots; 5.1 m/s)
Visibility: 6 or more miles (10+ km)
Ceiling: at least 12,000 feet AGL
Clouds: few clouds at 3200 feet AGL
Weather: no significant weather observed at this time

METAR text: MHTG 242200Z 12004KT 9999 SCT032 28/15 Q1018 A3006 NOSIG
Conditions at: MHTG (TEGUCIGALPA/TON , HN) observed 2200 UTC 24 June 2019
Temperature: 28.0°C (82°F)
Dewpoint: 15.0°C (59°F) [RH = 45%]
Pressure (altimeter): 30.06 inches Hg (1018.0 mb)
Winds: from the ESE (120 degrees) at 5 MPH (4 knots; 2.1 m/s)
Visibility: 6 or more miles (10+ km)
Ceiling: at least 12,000 feet AGL
Clouds: scattered clouds at 3200 feet AGL
Weather: no significant weather observed at this time

METAR text: MHTG 242100Z 03010KT 9999 BKN032 27/15 Q1018 A3006 NOSIG
Conditions at: MHTG (TEGUCIGALPA/TON , HN) observed 2100 UTC 24 June 2019
Temperature: 27.0°C (81°F)
Dewpoint: 15.0°C (59°F) [RH = 48%]
Pressure (altimeter): 30.06 inches Hg (1018.0 mb)
Winds: from the NNE (30 degrees) at 12 MPH (10 knots; 5.1 m/s)
Visibility: 6 or more miles (10+ km)
Ceiling: 3200 feet AGL
Clouds: broken clouds at 3200 feet AGL
Weather: no significant weather observed at this time

METAR text: MHTG 242000Z 06004KT 9999 SCT032 27/15 Q1018 A3006 NOSIG
Conditions at: MHTG (TEGUCIGALPA/TON , HN) observed 2000 UTC 24 June 2019
Temperature: 27.0°C (81°F)
Dewpoint: 15.0°C (59°F) [RH = 48%]
Pressure (altimeter): 30.06 inches Hg (1018.0 mb)
Winds: from the ENE (60 degrees) at 5 MPH (4 knots; 2.1 m/s)
Visibility: 6 or more miles (10+ km)
Ceiling: at least 12,000 feet AGL
Clouds: scattered clouds at 3200 feet AGL
Weather: no significant weather observed at this time

METAR text: MHTG 241900Z 09008KT 9999 SCT032 28/14 Q1019 A3009 NOSIG
Conditions at: MHTG (TEGUCIGALPA/TON , HN) observed 1900 UTC 24 June 2019
Temperature: 28.0°C (82°F)
Dewpoint: 14.0°C (57°F) [RH = 42%]
Pressure (altimeter): 30.09 inches Hg (1019.0 mb)
Winds: from the E (90 degrees) at 9 MPH (8 knots; 4.1 m/s)
Visibility: 6 or more miles (10+ km)
Ceiling: at least 12,000 feet AGL
Clouds: scattered clouds at 3200 feet AGL
Weather: no significant weather observed at this time

METAR text: MHTG 241800Z 09008KT 9999 FEW032 27/15 Q1020 A3012 NOSIG
Conditions at: MHTG (TEGUCIGALPA/TON , HN) observed 1800 UTC 24 June 2019
Temperature: 27.0°C (81°F)
Dewpoint: 15.0°C (59°F) [RH = 48%]
Pressure (altimeter): 30.12 inches Hg (1020.0 mb)
Winds: from the E (90 degrees) at 9 MPH (8 knots; 4.1 m/s)
Visibility: 6 or more miles (10+ km)
Ceiling: at least 12,000 feet AGL
Clouds: few clouds at 3200 feet AGL
Weather: no significant weather observed at this time

METAR text: MHTG 241700Z 00000KT 9999 FEW032 26/13 Q1020 A3012 NOSIG
Conditions at: MHTG (TEGUCIGALPA/TON , HN) observed 1700 UTC 24 June 2019
Temperature: 26.0°C (79°F)
Dewpoint: 13.0°C (55°F) [RH = 45%]
Pressure (altimeter): 30.12 inches Hg (1020.0 mb)
Winds: calm
Visibility: 6 or more miles (10+ km)
Ceiling: at least 12,000 feet AGL
Clouds: few clouds at 3200 feet AGL
Weather: no significant weather observed at this time

METAR text: MHTG 241600Z 09006KT 9999 FEW030 25/15 Q1021 A3015 NOSIG
Conditions at: MHTG (TEGUCIGALPA/TON , HN) observed 1600 UTC 24 June 2019
Temperature: 25.0°C (77°F)
Dewpoint: 15.0°C (59°F) [RH = 54%]
Pressure (altimeter): 30.15 inches Hg (1021.0 mb)
Winds: from the E (90 degrees) at 7 MPH (6 knots; 3.1 m/s)
Visibility: 6 or more miles (10+ km)
Ceiling: at least 12,000 feet AGL
Clouds: few clouds at 3000 feet AGL
Weather: no significant weather observed at this time

METAR text: MHTG 241500Z 00000KT 9999 SCT028 23/16 Q1021 A3015 NOSIG
Conditions at: MHTG (TEGUCIGALPA/TON , HN) observed 1500 UTC 24 June 2019
Temperature: 23.0°C (73°F)
Dewpoint: 16.0°C (61°F) [RH = 65%]
Pressure (altimeter): 30.15 inches Hg (1021.0 mb)
Winds: calm
Visibility: 6 or more miles (10+ km)
Ceiling: at least 12,000 feet AGL
Clouds: scattered clouds at 2800 feet AGL
Weather: no significant weather observed at this time

METAR text: MHTG 241400Z 03004KT 9999 FEW028 SCT250 21/15 Q1021 A3015 NOSIG
Conditions at: MHTG (TEGUCIGALPA/TON , HN) observed 1400 UTC 24 June 2019
Temperature: 21.0°C (70°F)
Dewpoint: 15.0°C (59°F) [RH = 69%]
Pressure (altimeter): 30.15 inches Hg (1021.0 mb)
Winds: from the NNE (30 degrees) at 5 MPH (4 knots; 2.1 m/s)
Visibility: 6 or more miles (10+ km)
Ceiling: at least 12,000 feet AGL
Clouds: few clouds at 2800 feet AGL
scattered clouds at 25000 feet AGL
Weather: no significant weather observed at this time

METAR text: MHTG 241300Z 21002KT 9999 FEW024 SCT250 18/16 Q1021 A3015 NOSIG
Conditions at: MHTG (TEGUCIGALPA/TON , HN) observed 1300 UTC 24 June 2019
Temperature: 18.0°C (64°F)
Dewpoint: 16.0°C (61°F) [RH = 88%]
Pressure (altimeter): 30.15 inches Hg (1021.0 mb)
Winds: from the SSW (210 degrees) at 2 MPH (2 knots; 1.0 m/s)
Visibility: 6 or more miles (10+ km)
Ceiling: at least 12,000 feet AGL
Clouds: few clouds at 2400 feet AGL
scattered clouds at 25000 feet AGL
Weather: no significant weather observed at this time

METAR text: MHTG 241230Z 00000KT 9999 FEW024 SCT250 18/15 Q1020 A3012 NOSIG
Conditions at: MHTG (TEGUCIGALPA/TON , HN) observed 1230 UTC 24 June 2019
Temperature: 18.0°C (64°F)
Dewpoint: 15.0°C (59°F) [RH = 83%]
Pressure (altimeter): 30.12 inches Hg (1020.0 mb)
Winds: calm
Visibility: 6 or more miles (10+ km)
Ceiling: at least 12,000 feet AGL
Clouds: few clouds at 2400 feet AGL
scattered clouds at 25000 feet AGL
Weather: no significant weather observed at this time

METAR text: MHTG 241200Z 25004KT 9999 FEW026 SCT250 15/13 Q1020 A3012 NOSIG
Conditions at: MHTG (TEGUCIGALPA/TON , HN) observed 1200 UTC 24 June 2019
Temperature: 15.0°C (59°F)
Dewpoint: 13.0°C (55°F) [RH = 88%]
Pressure (altimeter): 30.12 inches Hg (1020.0 mb)
Winds: from the WSW (250 degrees) at 5 MPH (4 knots; 2.1 m/s)
Visibility: 6 or more miles (10+ km)
Ceiling: at least 12,000 feet AGL
Clouds: few clouds at 2600 feet AGL
scattered clouds at 25000 feet AGL
Weather: no significant weather observed at this time

METAR text: MHTG 241100Z 00000KT 9999 FEW028 SCT250 15/13 Q1019 A3009 NOSIG
Conditions at: MHTG (TEGUCIGALPA/TON , HN) observed 1100 UTC 24 June 2019
Temperature: 15.0°C (59°F)
Dewpoint: 13.0°C (55°F) [RH = 88%]
Pressure (altimeter): 30.09 inches Hg (1019.0 mb)
Winds: calm
Visibility: 6 or more miles (10+ km)
Ceiling: at least 12,000 feet AGL
Clouds: few clouds at 2800 feet AGL
scattered clouds at 25000 feet AGL
Weather: no significant weather observed at this time

METAR text: MHTG 241000Z 00000KT 9999 FEW028 17/13 Q1019 A3009 NOSIG
Conditions at: MHTG (TEGUCIGALPA/TON , HN) observed 1000 UTC 24 June 2019
Temperature: 17.0°C (63°F)
Dewpoint: 13.0°C (55°F) [RH = 77%]
Pressure (altimeter): 30.09 inches Hg (1019.0 mb)
Winds: calm
Visibility: 6 or more miles (10+ km)
Ceiling: at least 12,000 feet AGL
Clouds: few clouds at 2800 feet AGL
Weather: no significant weather observed at this time

METAR text: MHTG 240900Z 19003KT 9999 FEW028 17/13 Q1019 A3009 NOSIG
Conditions at: MHTG (TEGUCIGALPA/TON , HN) observed 0900 UTC 24 June 2019
Temperature: 17.0°C (63°F)
Dewpoint: 13.0°C (55°F) [RH = 77%]
Pressure (altimeter): 30.09 inches Hg (1019.0 mb)
Winds: from the S (190 degrees) at 3 MPH (3 knots; 1.5 m/s)
Visibility: 6 or more miles (10+ km)
Ceiling: at least 12,000 feet AGL
Clouds: few clouds at 2800 feet AGL
Weather: no significant weather observed at this time

METAR text: MHTG 240800Z 00000KT 9999 FEW028 18/14 Q1019 A3009 NOSIG
Conditions at: MHTG (TEGUCIGALPA/TON , HN) observed 0800 UTC 24 June 2019
Temperature: 18.0°C (64°F)
Dewpoint: 14.0°C (57°F) [RH = 77%]
Pressure (altimeter): 30.09 inches Hg (1019.0 mb)
Winds: calm
Visibility: 6 or more miles (10+ km)
Ceiling: at least 12,000 feet AGL
Clouds: few clouds at 2800 feet AGL
Weather: no significant weather observed at this time

METAR text: MHTG 240700Z 00000KT 9999 FEW028 19/14 Q1021 A3015 NOSIG
Conditions at: MHTG (TEGUCIGALPA/TON , HN) observed 0700 UTC 24 June 2019
Temperature: 19.0°C (66°F)
Dewpoint: 14.0°C (57°F) [RH = 73%]
Pressure (altimeter): 30.15 inches Hg (1021.0 mb)
Winds: calm
Visibility: 6 or more miles (10+ km)
Ceiling: at least 12,000 feet AGL
Clouds: few clouds at 2800 feet AGL
Weather: no significant weather observed at this time

METAR text: MHTG 240600Z 00000KT 9999 FEW028 20/14 Q1021 A3015 NOSIG
Conditions at: MHTG (TEGUCIGALPA/TON , HN) observed 0600 UTC 24 June 2019
Temperature: 20.0°C (68°F)
Dewpoint: 14.0°C (57°F) [RH = 68%]
Pressure (altimeter): 30.15 inches Hg (1021.0 mb)
Winds: calm
Visibility: 6 or more miles (10+ km)
Ceiling: at least 12,000 feet AGL
Clouds: few clouds at 2800 feet AGL
Weather: no significant weather observed at this time

METAR text: MHTG 240500Z 08004KT 9999 FEW028 21/15 Q1021 A3015 NOSIG
Conditions at: MHTG (TEGUCIGALPA/TON , HN) observed 0500 UTC 24 June 2019
Temperature: 21.0°C (70°F)
Dewpoint: 15.0°C (59°F) [RH = 69%]
Pressure (altimeter): 30.15 inches Hg (1021.0 mb)
Winds: from the E (80 degrees) at 5 MPH (4 knots; 2.1 m/s)
Visibility: 6 or more miles (10+ km)
Ceiling: at least 12,000 feet AGL
Clouds: few clouds at 2800 feet AGL
Weather: no significant weather observed at this time

METAR text: MHTG 240400Z 08002KT 9999 FEW028 22/15 Q1021 A3015 NOSIG
Conditions at: MHTG (TEGUCIGALPA/TON , HN) observed 0400 UTC 24 June 2019
Temperature: 22.0°C (72°F)
Dewpoint: 15.0°C (59°F) [RH = 65%]
Pressure (altimeter): 30.15 inches Hg (1021.0 mb)
Winds: from the E (80 degrees) at 2 MPH (2 knots; 1.0 m/s)
Visibility: 6 or more miles (10+ km)
Ceiling: at least 12,000 feet AGL
Clouds: few clouds at 2800 feet AGL
Weather: no significant weather observed at this time

METAR text: MHTG 240300Z 08008KT 9999 FEW028 22/16 Q1020 A3012 NOSIG
Conditions at: MHTG (TEGUCIGALPA/TON , HN) observed 0300 UTC 24 June 2019
Temperature: 22.0°C (72°F)
Dewpoint: 16.0°C (61°F) [RH = 69%]
Pressure (altimeter): 30.12 inches Hg (1020.0 mb)
Winds: from the E (80 degrees) at 9 MPH (8 knots; 4.1 m/s)
Visibility: 6 or more miles (10+ km)
Ceiling: at least 12,000 feet AGL
Clouds: few clouds at 2800 feet AGL
Weather: no significant weather observed at this time

METAR text: MHTG 240200Z 06003KT 9999 BKN030 23/16 Q1020 A3012 NOSIG
Conditions at: MHTG (TEGUCIGALPA/TON , HN) observed 0200 UTC 24 June 2019
Temperature: 23.0°C (73°F)
Dewpoint: 16.0°C (61°F) [RH = 65%]
Pressure (altimeter): 30.12 inches Hg (1020.0 mb)
Winds: from the ENE (60 degrees) at 3 MPH (3 knots; 1.5 m/s)
Visibility: 6 or more miles (10+ km)
Ceiling: 3000 feet AGL
Clouds: broken clouds at 3000 feet AGL
Weather: no significant weather observed at this time

METAR text: MHTG 240100Z 02007KT 9999 SCT032 23/14 Q1019 A3009 NOSIG
Conditions at: MHTG (TEGUCIGALPA/TON , HN) observed 0100 UTC 24 June 2019
Temperature: 23.0°C (73°F)
Dewpoint: 14.0°C (57°F) [RH = 57%]
Pressure (altimeter): 30.09 inches Hg (1019.0 mb)
Winds: from the NNE (20 degrees) at 8 MPH (7 knots; 3.6 m/s)
Visibility: 6 or more miles (10+ km)
Ceiling: at least 12,000 feet AGL
Clouds: scattered clouds at 3200 feet AGL
Weather: no significant weather observed at this time

METAR text: MHTG 240000Z 07003KT 9999 BKN032 26/15 Q1018 A3006 NOSIG
Conditions at: MHTG (TEGUCIGALPA/TON , HN) observed 0000 UTC 24 June 2019
Temperature: 26.0°C (79°F)
Dewpoint: 15.0°C (59°F) [RH = 51%]
Pressure (altimeter): 30.06 inches Hg (1018.0 mb)
Winds: from the ENE (70 degrees) at 3 MPH (3 knots; 1.5 m/s)
Visibility: 6 or more miles (10+ km)
Ceiling: 3200 feet AGL
Clouds: broken clouds at 3200 feet AGL
Weather: no significant weather observed at this time

Forecast for: MHTG (TEGUCIGALPA/TON , HN)
Text: TAF MHTG 251025Z 2512/2612 00000KT 9999 BKN028 TX29/2521Z TN18/2612Z
Forecast period: 1200 to 1500 UTC 25 June 2019
Forecast type: FROM: standard forecast or significant change
Winds: calm
Visibility: 6 or more miles 10+ km)
Ceiling: 2800 feet AGL
Clouds: broken clouds at 2800 feet AGL
Weather: no significant weather forecast for this period
Text: BECMG 2515/2517 07005KT SCT028
Forecast period: 1500 UTC 25 June 2019 to 0300 UTC 26 June 2019
Forecast type: BECOMING: Conditions expected to become as follows by 1700 UTC 25 June 2019
Winds: from the ENE (70 degrees) at 6 MPH (5 knots; 2.6 m/s)
Visibility: 6 or more miles 10+ km)
Ceiling: at least 12,000 feet AGL
Clouds: scattered clouds at 2800 feet AGL
Weather: no significant weather forecast for this period
Text: PROB30
Forecast period: 2100 UTC 25 June 2019 to 0300 UTC 26 June 2019
Forecast type: TEMPORARY: The following changes expected for less than half the time period
Visibility: 4 miles (6 km)
Ceiling: at least 12,000 feet AGL
Clouds: scattered clouds at 2800 feet AGL
scattered clouds at 3200 feet AGL
Weather: -TSRA  (light rain associated with thunderstorm(s))
Text: TEMPO 2521/2603 6000 -TSRA SCT028TCU SCT032CB
Forecast period: 0300 to 0600 UTC 26 June 2019
Forecast type: BECOMING: Conditions expected to become as follows by 0500 UTC 26 June 2019
Winds: from the N (360 degrees) at 5 MPH (4 knots; 2.1 m/s)
Visibility: 5 miles (8 km)
Ceiling: at least 12,000 feet AGL
Clouds: scattered clouds at 2800 feet AGL
scattered clouds at 8000 feet AGL
Weather: no significant weather forecast for this period
Text: BECMG 2603/2605 36004KT 8000 VSCH SCT028 SCT080
Forecast period: 0600 to 1200 UTC 26 June 2019
Forecast type: BECOMING: Conditions expected to become as follows by 0800 UTC 26 June 2019
Winds: from the N (360 degrees) at 5 MPH (4 knots; 2.1 m/s)
Visibility: 6 or more miles 10+ km)
Ceiling: 2800 feet AGL
Clouds: few clouds at 900 feet AGL
broken clouds at 2800 feet AGL
Weather: NSW  (no significant weather)